Time;durP1;ratioP1;P1;durP2;ratioP2;P2;SDS_P1;SDS_P2;PMS_P1;PMS_P2;Temp;Humidity;BMP_temperature;BMP_pressure;BME280_temperature;BME280_humidity;BME280_pressure;Samples;Min_cycle;Max_cycle;Signal;HPM_P1;HPM_P2
2021/01/26 00:02:32;;;;;;;15.60;4.93;;;2.90;99.90;;;;;;5022954;28;20671;-64
2021/01/26 00:05:27;;;;;;;16.10;5.13;;;2.90;99.90;;;;;;5028925;28;20695;-63
2021/01/26 00:08:01;;;;;;;14.73;4.90;;;2.90;99.90;;;;;;5018737;28;20283;-63
2021/01/26 00:10:33;;;;;;;16.17;5.10;;;2.90;99.90;;;;;;5023110;28;20220;-64
2021/01/26 00:13:04;;;;;;;16.80;5.20;;;3.00;99.90;;;;;;5024645;28;20260;-64
2021/01/26 00:16:00;;;;;;;13.07;5.07;;;3.00;99.90;;;;;;5019018;28;20765;-64
2021/01/26 00:19:17;;;;;;;17.13;5.23;;;3.00;99.90;;;;;;5027673;28;20213;-64
2021/01/26 00:24:58;;;;;;;;;;;;;;;;;;;;;
2021/01/26 00:27:48;;;;;;;8.07;4.40;;;3.00;99.90;;;;;;5021023;28;20232;-64
2021/01/26 00:30:28;;;;;;;14.67;4.90;;;3.10;99.90;;;;;;5061339;28;20699;-64
2021/01/26 00:33:35;;;;;;;8.70;4.10;;;3.10;99.90;;;;;;5058533;28;20254;-63
2021/01/26 00:39:06;;;;;;;7.60;4.00;;;3.10;99.90;;;;;;5037263;28;20223;-64
2021/01/26 00:42:00;;;;;;;8.57;3.60;;;3.20;99.90;;;;;;5029070;28;20223;-65
2021/01/26 00:44:41;;;;;;;14.00;4.17;;;3.20;99.90;;;;;;5059026;28;20270;-64
2021/01/26 00:47:28;;;;;;;11.07;4.00;;;3.20;99.90;;;;;;5062668;28;20219;-64
2021/01/26 00:50:45;;;;;;;13.93;4.00;;;3.20;99.90;;;;;;5069068;28;20215;-64
2021/01/26 00:53:21;;;;;;;10.97;3.97;;;3.20;99.90;;;;;;4972170;28;20219;-64
2021/01/26 00:55:53;;;;;;;10.37;3.90;;;3.20;99.90;;;;;;5019160;28;20255;-64
2021/01/26 00:58:40;;;;;;;13.10;4.17;;;3.20;99.90;;;;;;5044578;28;20216;-64
2021/01/26 01:01:15;;;;;;;11.77;4.20;;;3.20;99.90;;;;;;5062463;28;20248;-64
2021/01/26 01:03:58;;;;;;;12.83;4.10;;;3.20;99.90;;;;;;5059121;28;20212;-64
2021/01/26 01:06:48;;;;;;;12.50;4.23;;;3.10;99.90;;;;;;5039116;28;20317;-63
2021/01/26 01:09:36;;;;;;;10.63;3.93;;;3.10;99.90;;;;;;5039323;28;20224;-63
2021/01/26 01:12:10;;;;;;;11.97;4.07;;;3.10;99.90;;;;;;5068697;28;20207;-63
2021/01/26 01:17:52;;;;;;;14.47;3.90;;;3.10;99.90;;;;;;5056502;28;20208;-64
2021/01/26 01:20:31;;;;;;;13.27;4.17;;;3.10;99.90;;;;;;5068795;28;20212;-63
2021/01/26 01:23:32;;;;;;;12.83;4.10;;;3.10;99.90;;;;;;5043467;28;20228;-64
2021/01/26 01:26:03;;;;;;;11.10;4.27;;;3.10;99.90;;;;;;5061393;28;20605;-64
2021/01/26 01:28:36;;;;;;;11.57;4.20;;;3.10;99.90;;;;;;5062696;28;20566;-64
2021/01/26 01:34:25;;;;;;;8.50;3.97;;;3.10;99.90;;;;;;5043651;28;20224;-64
2021/01/26 01:37:17;;;;;;;14.33;4.10;;;3.10;99.90;;;;;;5055882;28;20231;-63
2021/01/26 01:40:17;;;;;;;11.30;3.47;;;3.10;99.90;;;;;;5060171;28;20475;-64
2021/01/26 01:42:57;;;;;;;16.30;4.20;;;3.10;99.90;;;;;;5032388;28;20768;-63
2021/01/26 01:45:31;;;;;;;16.00;4.37;;;3.10;99.90;;;;;;5033928;28;20232;-65
2021/01/26 01:48:33;;;;;;;6.43;3.33;;;3.10;99.90;;;;;;5066640;28;20215;-63
2021/01/26 01:51:11;;;;;;;11.47;4.13;;;3.10;99.90;;;;;;5067863;28;20247;-63
2021/01/26 01:54:17;;;;;;;10.00;3.40;;;3.10;99.90;;;;;;5043366;28;20689;-64
2021/01/26 01:57:06;;;;;;;11.83;3.47;;;3.20;99.90;;;;;;5047108;28;20739;-65
2021/01/26 01:59:59;;;;;;;12.90;3.87;;;3.20;99.90;;;;;;5056578;28;20583;-64
2021/01/26 02:02:30;;;;;;;8.10;3.67;;;3.20;99.90;;;;;;5062829;28;20216;-63
2021/01/26 02:05:16;;;;;;;;;;;;;;;;;;;;;
2021/01/26 02:07:46;;;;;;;8.83;3.33;;;3.10;99.90;;;;;;5062022;28;20323;-64
2021/01/26 02:13:54;;;;;;;8.80;3.37;;;3.00;99.90;;;;;;5007298;28;20357;-63
2021/01/26 02:17:52;;;;;;;11.80;3.17;;;2.90;99.90;;;;;;5034053;28;20215;-63
2021/01/26 02:24:34;;;;;;;11.30;3.43;;;3.00;99.90;;;;;;5009352;28;20229;-64
2021/01/26 02:28:02;;;;;;;9.40;3.43;;;3.10;99.90;;;;;;5017300;28;20245;-63
2021/01/26 02:31:32;;;;;;;5.67;3.40;;;3.00;99.90;;;;;;5019689;28;20236;-63
2021/01/26 02:34:57;;;;;;;6.13;3.37;;;3.00;99.90;;;;;;4991984;28;20298;-63
2021/01/26 02:38:26;;;;;;;8.37;3.07;;;3.00;99.90;;;;;;5015087;28;20220;-63
2021/01/26 02:41:36;;;;;;;12.87;3.50;;;3.10;99.90;;;;;;4959350;28;20277;-64
2021/01/26 02:45:17;;;;;;;7.27;3.40;;;3.10;99.90;;;;;;5007015;28;20222;-63
2021/01/26 02:48:27;;;;;;;9.97;3.53;;;3.10;99.90;;;;;;5051419;28;20220;-64
2021/01/26 02:51:43;;;;;;;12.23;3.40;;;3.10;99.90;;;;;;5024152;28;20220;-63
2021/01/26 02:57:50;;;;;;;10.60;3.60;;;3.00;99.90;;;;;;4960754;28;20219;-64
2021/01/26 03:00:35;;;;;;;10.90;3.57;;;3.00;99.90;;;;;;4973021;28;20293;-64
2021/01/26 03:03:18;;;;;;;10.63;3.93;;;3.00;99.90;;;;;;5059252;28;20220;-64
2021/01/26 03:06:32;;;;;;;8.23;3.80;;;3.00;99.90;;;;;;5058664;28;20292;-64
2021/01/26 03:09:17;;;;;;;13.93;4.20;;;3.00;99.90;;;;;;4973480;28;20237;-64
2021/01/26 03:15:41;;;;;;;11.00;3.50;;;3.00;99.90;;;;;;4998230;28;20227;-63
2021/01/26 03:18:12;;;;;;;9.97;4.10;;;3.00;99.90;;;;;;5005193;28;20680;-64
2021/01/26 03:26:46;;;;;;;12.37;4.37;;;3.00;99.90;;;;;;4975058;28;20230;-64
2021/01/26 03:29:22;;;;;;;6.07;3.60;;;3.00;99.90;;;;;;4969287;28;20678;-63
2021/01/26 03:32:13;;;;;;;7.90;3.57;;;3.00;99.90;;;;;;5007374;28;20703;-63
2021/01/26 03:34:48;;;;;;;10.97;3.63;;;3.00;99.90;;;;;;4991943;28;20226;-64
2021/01/26 03:37:23;;;;;;;7.97;3.70;;;3.00;99.90;;;;;;4985383;28;20227;-63
2021/01/26 03:39:57;;;;;;;8.57;3.70;;;3.00;99.90;;;;;;5025438;28;20311;-64
2021/01/26 03:42:37;;;;;;;8.37;3.60;;;3.00;99.90;;;;;;5041562;28;20219;-63
2021/01/26 03:45:12;;;;;;;3.70;3.40;;;3.00;99.90;;;;;;5038995;28;20560;-64
2021/01/26 03:49:02;;;;;;;15.80;4.13;;;3.00;99.90;;;;;;5035220;28;20695;-64
2021/01/26 03:53:20;;;;;;;8.80;3.50;;;3.00;99.90;;;;;;5035983;28;20219;-64
2021/01/26 03:56:44;;;;;;;7.73;3.47;;;3.00;99.90;;;;;;5046700;28;20732;-63
2021/01/26 03:59:46;;;;;;;7.53;3.40;;;2.90;99.90;;;;;;5052114;28;20216;-64
2021/01/26 04:05:57;;;;;;;4.70;3.33;;;2.90;99.90;;;;;;5009485;28;20262;-63
2021/01/26 04:08:50;;;;;;;10.57;3.67;;;2.90;99.90;;;;;;4970387;28;20222;-64
2021/01/26 04:11:23;;;;;;;10.07;3.73;;;2.80;99.90;;;;;;4939484;28;20233;-64
2021/01/26 04:14:12;;;;;;;11.20;3.67;;;2.80;99.90;;;;;;4944215;29;20288;-63
2021/01/26 04:17:34;;;;;;;6.90;3.60;;;2.80;99.90;;;;;;4952781;28;20234;-63
2021/01/26 04:20:38;;;;;;;11.00;3.50;;;2.70;99.90;;;;;;4950817;29;20219;-63
2021/01/26 04:23:30;;;;;;;8.67;3.83;;;2.60;99.90;;;;;;4961763;28;20229;-64
2021/01/26 04:26:37;;;;;;;12.70;3.83;;;2.50;99.90;;;;;;5005590;28;20218;-64
2021/01/26 04:29:08;;;;;;;12.20;4.27;;;2.40;99.90;;;;;;4955974;28;20221;-63
2021/01/26 04:39:01;;;;;;;5.47;3.83;;;2.20;99.90;;;;;;5028645;28;20217;-63
2021/01/26 04:45:19;;;;;;;6.20;3.67;;;2.10;99.90;;;;;;5016409;28;20229;-63
2021/01/26 04:48:26;;;;;;;13.10;4.30;;;2.10;99.90;;;;;;5024911;28;20222;-64
2021/01/26 04:58:10;;;;;;;11.33;3.93;;;1.90;99.90;;;;;;5018807;28;20225;-63
2021/01/26 05:04:58;;;;;;;10.37;4.30;;;1.70;99.90;;;;;;4999416;28;20566;-63
2021/01/26 05:07:47;;;;;;;8.93;3.90;;;1.60;99.90;;;;;;4995628;28;20321;-63
2021/01/26 05:10:40;;;;;;;11.13;3.87;;;1.60;99.90;;;;;;4978994;28;20273;-63
2021/01/26 05:34:52;;;;;;;4.17;3.20;;;1.50;99.90;;;;;;4881096;29;20224;-63
2021/01/26 05:37:26;;;;;;;11.33;3.90;;;1.50;99.90;;;;;;4933340;29;20220;-63
2021/01/26 05:40:24;;;;;;;9.23;3.10;;;1.50;99.90;;;;;;4984653;28;20232;-63
2021/01/26 05:43:37;;;;;;;8.30;3.27;;;1.40;99.90;;;;;;4994631;28;20755;-63
2021/01/26 05:46:34;;;;;;;7.37;3.30;;;1.40;99.90;;;;;;4993346;28;20225;-63
2021/01/26 05:49:44;;;;;;;11.60;3.77;;;1.40;99.90;;;;;;4978233;28;20268;-63
2021/01/26 05:53:35;;;;;;;4.63;3.30;;;1.30;99.90;;;;;;4992800;28;20556;-63
2021/01/26 05:56:09;;;;;;;14.37;3.50;;;1.30;99.90;;;;;;5024413;28;20221;-63
2021/01/26 05:59:35;;;;;;;11.07;3.60;;;1.40;99.90;;;;;;5021838;28;20222;-63
2021/01/26 06:02:22;;;;;;;8.30;3.63;;;1.30;99.90;;;;;;4999695;28;20293;-63
2021/01/26 06:08:29;;;;;;;5.70;3.20;;;1.30;99.90;;;;;;4951859;28;20721;-63
2021/01/26 06:11:23;;;;;;;4.70;3.53;;;1.30;99.90;;;;;;4993640;28;20230;-63
2021/01/26 06:13:50;;;;;;;8.50;3.80;;;1.30;99.90;;;;;;4962244;28;20245;-63
2021/01/26 06:16:35;;;;;;;10.70;3.80;;;1.20;99.90;;;;;;4997833;28;20219;-63
2021/01/26 06:20:09;;;;;;;10.93;3.90;;;1.20;99.90;;;;;;4999040;28;20218;-63
2021/01/26 06:22:50;;;;;;;7.93;3.53;;;1.10;99.90;;;;;;4992093;28;20803;-65
2021/01/26 06:25:47;;;;;;;6.63;3.60;;;1.20;99.90;;;;;;5021253;28;20754;-63
2021/01/26 06:28:32;;;;;;;6.33;3.40;;;1.20;99.90;;;;;;5023491;28;20675;-63
2021/01/26 06:31:13;;;;;;;4.90;3.27;;;1.20;99.90;;;;;;5003719;28;20225;-63
2021/01/26 06:34:23;;;;;;;6.87;3.43;;;1.20;99.90;;;;;;5011736;28;20295;-63
2021/01/26 06:44:57;;;;;;;7.43;4.07;;;1.10;99.90;;;;;;4909605;28;20224;-64
2021/01/26 06:48:16;;;;;;;12.37;4.23;;;1.10;99.90;;;;;;5026158;28;20213;-63
2021/01/26 06:52:12;;;;;;;12.17;4.23;;;1.10;99.90;;;;;;4960724;28;20792;-63
2021/01/26 07:06:37;;;;;;;5.63;3.43;;;1.00;99.90;;;;;;4983330;28;20245;-63
2021/01/26 07:10:03;;;;;;;8.60;4.20;;;1.00;99.90;;;;;;5010755;28;20217;-63
2021/01/26 07:13:37;;;;;;;;;;;;;;;;;;;;;
2021/01/26 07:17:46;;;;;;;6.27;3.67;;;1.00;99.90;;;;;;5000394;28;20715;-64
2021/01/26 07:21:07;;;;;;;13.27;3.77;;;1.00;99.90;;;;;;5042743;28;20266;-63
2021/01/26 07:40:43;;;;;;;6.67;3.87;;;0.90;99.90;;;;;;4982533;28;20373;-63
2021/01/26 07:44:00;;;;;;;8.80;3.53;;;0.90;99.90;;;;;;4971216;28;20801;-65
2021/01/26 07:51:07;;;;;;;5.03;3.33;;;1.10;99.90;;;;;;4915547;29;20225;-64
2021/01/26 08:11:13;;;;;;;7.87;4.07;;;1.30;99.90;;;;;;4859559;29;20272;-65
2021/01/26 08:14:38;;;;;;;7.60;4.03;;;1.30;99.90;;;;;;4822826;29;20226;-65
2021/01/26 08:18:36;;;;;;;5.07;4.07;;;1.30;99.90;;;;;;4842404;29;20280;-65
2021/01/26 08:21:45;;;;;;;7.67;3.60;;;1.30;99.90;;;;;;4871274;29;20261;-65
2021/01/26 08:25:20;;;;;;;9.07;4.07;;;1.30;99.90;;;;;;4878691;29;20274;-65
2021/01/26 08:28:48;;;;;;;6.40;3.87;;;1.30;99.90;;;;;;4783121;29;20226;-65
2021/01/26 08:31:34;;;;;;;9.93;4.17;;;1.30;99.90;;;;;;4781848;30;20629;-65
2021/01/26 08:38:11;;;;;;;6.33;3.47;;;1.30;99.90;;;;;;4784312;29;20290;-65
2021/01/26 08:45:07;;;;;;;;;;;;;;;;;;;;;
2021/01/26 08:47:54;;;;;;;6.67;3.63;;;1.60;99.90;;;;;;4885020;29;20323;-65
2021/01/26 08:51:07;;;;;;;7.73;3.90;;;1.80;99.90;;;;;;4973383;28;20270;-63
2021/01/26 08:53:38;;;;;;;6.07;3.80;;;1.90;99.90;;;;;;4914711;29;20233;-63
2021/01/26 08:56:49;;;;;;;9.20;3.90;;;2.00;99.90;;;;;;4913135;29;20719;-65
2021/01/26 09:06:58;;;;;;;7.73;3.40;;;2.30;99.90;;;;;;4948416;28;20242;-65
2021/01/26 09:13:26;;;;;;;8.80;4.00;;;2.50;99.90;;;;;;4978231;28;20239;-66
2021/01/26 09:16:56;;;;;;;6.63;3.83;;;2.70;99.90;;;;;;5017659;28;20343;-66
2021/01/26 09:19:43;;;;;;;14.10;3.87;;;2.80;99.90;;;;;;4981888;28;20225;-65
2021/01/26 09:22:44;;;;;;;5.40;3.33;;;3.00;99.90;;;;;;5027341;28;20220;-66
2021/01/26 09:25:24;;;;;;;3.83;3.47;;;3.30;99.90;;;;;;5030358;28;20209;-65
2021/01/26 09:27:58;;;;;;;8.83;3.13;;;3.40;99.90;;;;;;5034265;28;20229;-66
2021/01/26 09:37:36;;;;;;;5.60;3.10;;;3.60;99.90;;;;;;4964106;28;20693;-65
2021/01/26 09:40:28;;;;;;;8.93;2.83;;;3.60;99.90;;;;;;4985265;28;20223;-65
2021/01/26 09:43:23;;;;;;;8.30;3.67;;;3.60;99.90;;;;;;4954590;28;20811;-65
2021/01/26 09:50:13;;;;;;;5.90;3.27;;;3.80;99.90;;;;;;4910516;29;20228;-65
2021/01/26 09:56:42;;;;;;;5.13;3.47;;;3.80;99.90;;;;;;4894153;29;20236;-65
2021/01/26 10:00:56;;;;;;;11.17;3.17;;;4.00;99.90;;;;;;4898754;28;20232;-65
2021/01/26 10:03:40;;;;;;;4.60;2.97;;;4.20;99.90;;;;;;4934985;29;20231;-65
2021/01/26 10:06:26;;;;;;;6.27;3.30;;;4.40;99.90;;;;;;4934576;29;20231;-65
2021/01/26 10:09:24;;;;;;;6.00;3.33;;;4.80;99.90;;;;;;4947981;28;20232;-65
2021/01/26 10:12:26;;;;;;;4.80;3.43;;;4.90;99.90;;;;;;4950662;28;20776;-64
2021/01/26 10:18:45;;;;;;;5.93;3.53;;;4.90;99.90;;;;;;4948556;29;20240;-65
2021/01/26 10:24:51;;;;;;;6.00;3.70;;;4.70;99.90;;;;;;5032731;28;20224;-65
2021/01/26 10:27:28;;;;;;;6.97;3.57;;;4.80;99.90;;;;;;5051283;28;20235;-65
2021/01/26 10:30:09;;;;;;;5.93;3.80;;;4.80;99.90;;;;;;5060876;28;20217;-66
2021/01/26 10:35:58;;;;;;;5.63;3.40;;;4.90;99.90;;;;;;5056838;28;20209;-66
2021/01/26 10:38:29;;;;;;;5.00;3.87;;;5.00;99.90;;;;;;5051819;28;20211;-65
2021/01/26 10:41:22;;;;;;;9.23;3.60;;;5.10;99.90;;;;;;5040353;28;20224;-65
2021/01/26 10:44:30;;;;;;;7.40;4.13;;;5.20;99.90;;;;;;5053210;28;20226;-65
2021/01/26 10:47:29;;;;;;;6.50;3.50;;;5.30;99.90;;;;;;5045572;28;20224;-64
2021/01/26 10:50:00;;;;;;;6.27;3.07;;;5.50;99.90;;;;;;5058984;28;20216;-64
2021/01/26 10:52:52;;;;;;;7.53;3.50;;;5.70;99.90;;;;;;5072246;28;20282;-64
2021/01/26 10:55:28;;;;;;;5.90;3.70;;;5.90;99.90;;;;;;5061369;28;20226;-64
2021/01/26 10:58:04;;;;;;;9.53;3.67;;;6.20;99.90;;;;;;5059017;28;20293;-64
2021/01/26 11:04:07;;;;;;;5.97;3.30;;;6.70;99.90;;;;;;5039713;28;20255;-64
2021/01/26 11:06:56;;;;;;;3.30;2.77;;;6.90;99.90;;;;;;4982713;28;20239;-66
2021/01/26 11:09:37;;;;;;;4.30;3.03;;;7.10;99.90;;;;;;5066142;28;20227;-64
2021/01/26 11:12:32;;;;;;;5.87;3.43;;;7.10;99.90;;;;;;5062393;28;20682;-67
2021/01/26 11:18:17;;;;;;;6.07;3.10;;;7.40;99.90;;;;;;5002344;28;20584;-66
2021/01/26 11:24:37;;;;;;;3.57;2.90;;;7.80;99.90;;;;;;4942607;29;20236;-66
2021/01/26 11:27:36;;;;;;;3.40;2.70;;;8.10;99.90;;;;;;4979791;28;20231;-66
2021/01/26 11:34:02;;;;;;;6.37;3.00;;;8.30;99.90;;;;;;4916145;29;20240;-66
2021/01/26 11:40:07;;;;;;;2.60;2.40;;;8.20;99.90;;;;;;4789289;29;20269;-66
2021/01/26 11:44:17;;;;;;;9.27;3.30;;;7.90;99.90;;;;;;4753517;29;20273;-66
2021/01/26 11:47:30;;;;;;;;;;;;;;;;;;;;;
2021/01/26 11:50:41;;;;;;;8.17;3.27;;;8.20;99.90;;;;;;4742251;30;20230;-66
2021/01/26 11:53:17;;;;;;;5.50;3.67;;;8.30;99.90;;;;;;4791932;29;20233;-66
2021/01/26 11:55:46;;;;;;;5.33;3.73;;;8.50;99.90;;;;;;4892475;29;20222;-66
2021/01/26 11:58:57;;;;;;;5.83;3.90;;;8.30;99.90;;;;;;4839559;29;20224;-66
2021/01/26 12:01:24;;;;;;;5.57;4.00;;;8.10;99.90;;;;;;4870596;29;20225;-65
2021/01/26 12:09:21;;;;;;;8.37;4.10;;;8.70;99.90;;;;;;5002409;28;20704;-66
2021/01/26 12:11:49;;;;;;;9.10;4.37;;;9.00;99.90;;;;;;5009124;28;20221;-65
2021/01/26 12:14:21;;;;;;;7.67;4.37;;;8.80;99.90;;;;;;5032489;28;20268;-65
2021/01/26 12:20:23;;;;;;;8.87;4.00;;;8.00;99.90;;;;;;5018431;28;20229;-64
2021/01/26 12:26:35;;;;;;;9.67;4.07;;;7.40;99.90;;;;;;5025877;28;20262;-65
2021/01/26 12:29:49;;;;;;;8.10;4.60;;;7.00;99.90;;;;;;5061729;28;20220;-64
2021/01/26 12:32:51;;;;;;;4.80;4.10;;;6.80;99.90;;;;;;5058362;28;20687;-64
2021/01/26 12:35:33;;;;;;;6.53;4.63;;;6.70;99.90;;;;;;5058954;28;20216;-64
2021/01/26 12:38:11;;;;;;;6.40;3.80;;;6.80;99.90;;;;;;5071530;28;20773;-64
2021/01/26 12:40:59;;;;;;;8.17;3.90;;;6.90;99.90;;;;;;5066201;28;20687;-64
2021/01/26 12:43:30;;;;;;;9.30;4.00;;;7.40;99.90;;;;;;5061478;28;20642;-65
2021/01/26 12:52:08;;;;;;;6.97;4.47;;;8.10;99.90;;;;;;5019092;28;20226;-64
2021/01/26 12:54:48;;;;;;;6.77;3.83;;;8.00;99.90;;;;;;5014977;28;20305;-64
2021/01/26 12:57:22;;;;;;;8.30;3.80;;;8.10;99.90;;;;;;5027976;28;20229;-64
2021/01/26 13:00:08;;;;;;;4.37;3.70;;;8.40;99.90;;;;;;4989474;28;20217;-65
2021/01/26 13:02:49;;;;;;;4.27;3.87;;;8.70;99.90;;;;;;5009655;28;20220;-65
2021/01/26 13:05:20;;;;;;;5.00;3.90;;;8.80;99.90;;;;;;5010731;28;20566;-64
2021/01/26 13:08:16;;;;;;;8.40;3.93;;;8.80;99.90;;;;;;5016927;28;20232;-64
2021/01/26 13:10:51;;;;;;;8.20;3.90;;;8.50;99.90;;;;;;5018688;28;20271;-64
2021/01/26 13:13:56;;;;;;;8.90;3.93;;;8.20;99.90;;;;;;5001768;28;20245;-65
2021/01/26 13:16:24;;;;;;;6.53;3.70;;;7.80;99.90;;;;;;5007989;28;20222;-64
2021/01/26 13:18:59;;;;;;;8.73;3.60;;;7.70;99.90;;;;;;5025168;28;20634;-65
2021/01/26 13:21:29;;;;;;;8.00;3.77;;;7.90;99.90;;;;;;5002864;28;20261;-65
2021/01/26 13:26:46;;;;;;;3.87;3.40;;;8.10;99.90;;;;;;5032750;28;20638;-64
2021/01/26 13:29:21;;;;;;;4.37;3.53;;;8.20;99.90;;;;;;5048381;28;20216;-65
2021/01/26 13:31:54;;;;;;;3.90;3.30;;;8.10;99.90;;;;;;5046589;28;20687;-64
2021/01/26 13:34:22;;;;;;;5.17;3.77;;;8.00;99.90;;;;;;5045440;28;20565;-65
2021/01/26 13:37:07;;;;;;;3.70;3.23;;;8.00;99.90;;;;;;5040225;28;20307;-65
2021/01/26 13:39:37;;;;;;;4.03;3.63;;;7.90;99.90;;;;;;5040037;28;20275;-65
2021/01/26 13:42:28;;;;;;;6.47;3.93;;;7.90;99.90;;;;;;5035918;28;20233;-64
2021/01/26 13:45:08;;;;;;;5.80;3.53;;;7.90;99.90;;;;;;5036449;28;20232;-65
2021/01/26 13:47:37;;;;;;;4.20;3.40;;;8.00;99.90;;;;;;5019535;28;20588;-65
2021/01/26 13:50:26;;;;;;;5.67;3.40;;;8.10;99.90;;;;;;5033125;28;20703;-65
2021/01/26 13:53:25;;;;;;;3.57;3.20;;;8.10;99.90;;;;;;5036597;28;20285;-64
2021/01/26 13:56:16;;;;;;;8.47;4.33;;;8.10;99.90;;;;;;5046149;28;20216;-64
2021/01/26 13:59:00;;;;;;;6.93;3.70;;;8.10;99.90;;;;;;5044557;28;20211;-65
2021/01/26 14:01:29;;;;;;;5.40;3.70;;;7.90;99.90;;;;;;5043634;28;20213;-65
2021/01/26 14:04:11;;;;;;;5.40;3.83;;;7.70;99.90;;;;;;5037892;28;20275;-64
2021/01/26 14:06:46;;;;;;;4.23;3.53;;;7.50;99.90;;;;;;5034121;28;20633;-64
2021/01/26 14:09:16;;;;;;;4.03;3.47;;;7.40;99.90;;;;;;5047212;28;20212;-64
2021/01/26 14:11:52;;;;;;;4.30;3.33;;;7.20;99.90;;;;;;5045346;28;20270;-65
2021/01/26 14:14:31;;;;;;;5.30;3.77;;;7.10;99.90;;;;;;5043052;28;20299;-65
2021/01/26 14:17:19;;;;;;;5.40;3.60;;;6.80;99.90;;;;;;5043180;28;20223;-64
2021/01/26 14:19:55;;;;;;;6.80;4.40;;;6.80;99.90;;;;;;5038709;28;20234;-64
2021/01/26 14:22:25;;;;;;;4.50;3.97;;;6.70;99.90;;;;;;5039038;28;20224;-64
2021/01/26 14:25:02;;;;;;;4.23;3.70;;;6.60;99.90;;;;;;5045013;28;20292;-64
2021/01/26 14:27:30;;;;;;;11.47;4.60;;;6.60;99.90;;;;;;5052478;28;20288;-64
2021/01/26 14:32:47;;;;;;;6.33;4.43;;;6.60;99.90;;;;;;5028370;28;20224;-64
2021/01/26 14:35:30;;;;;;;7.73;4.70;;;6.70;99.90;;;;;;5061046;28;20208;-64
2021/01/26 14:38:14;;;;;;;4.60;4.20;;;6.70;99.90;;;;;;5054469;28;20677;-64
2021/01/26 14:40:42;;;;;;;3.93;3.60;;;6.60;99.90;;;;;;5037538;28;20243;-64
2021/01/26 14:43:32;;;;;;;5.77;4.20;;;6.50;99.90;;;;;;5054801;28;20200;-65
2021/01/26 14:46:25;;;;;;;6.97;4.10;;;6.50;99.90;;;;;;5060787;28;20591;-64
2021/01/26 14:49:10;;;;;;;6.97;3.87;;;6.40;99.90;;;;;;5065017;28;20216;-64
2021/01/26 14:51:40;;;;;;;3.87;3.67;;;6.40;99.90;;;;;;5053579;28;20224;-65
2021/01/26 14:54:08;;;;;;;5.60;3.80;;;6.30;99.90;;;;;;5064596;28;20231;-64
2021/01/26 14:56:43;;;;;;;7.30;4.10;;;6.20;99.90;;;;;;5058317;28;20200;-64
2021/01/26 14:59:31;;;;;;;4.97;3.70;;;6.20;99.90;;;;;;5075922;28;20210;-64
2021/01/26 15:05:22;;;;;;;5.57;4.00;;;6.20;99.90;;;;;;5062687;28;20246;-64
2021/01/26 15:07:50;;;;;;;6.87;3.90;;;6.20;99.90;;;;;;5058153;28;20244;-64
2021/01/26 15:13:19;;;;;;;7.20;4.20;;;6.20;99.90;;;;;;5052020;28;20224;-64
2021/01/26 15:16:16;;;;;;;6.77;4.23;;;6.10;99.90;;;;;;5045393;28;20232;-64
2021/01/26 15:18:54;;;;;;;8.20;4.13;;;6.10;99.90;;;;;;5067664;28;20223;-64
2021/01/26 15:21:36;;;;;;;4.50;4.10;;;6.00;99.90;;;;;;5070200;28;20231;-64
2021/01/26 15:24:50;;;;;;;;;;;;;;;;;;;;;
2021/01/26 15:30:28;;;;;;;7.93;4.50;;;5.80;99.90;;;;;;5044888;28;20267;-64
2021/01/26 15:39:48;;;;;;;4.80;4.13;;;5.50;99.90;;;;;;4970152;28;20241;-64
2021/01/26 15:42:25;;;;;;;6.97;3.80;;;5.40;99.90;;;;;;5017149;28;20691;-64
2021/01/26 15:45:25;;;;;;;6.17;4.97;;;5.40;99.90;;;;;;5025312;28;20267;-64
2021/01/26 15:48:00;;;;;;;10.13;5.33;;;5.30;99.90;;;;;;5024097;28;20725;-64
2021/01/26 15:50:32;;;;;;;12.87;4.90;;;5.30;99.90;;;;;;5011280;28;20239;-64
2021/01/26 15:53:58;;;;;;;5.63;4.73;;;5.20;99.90;;;;;;5004941;28;20305;-64
2021/01/26 15:56:30;;;;;;;15.10;5.40;;;5.10;99.90;;;;;;4997236;28;20771;-64
2021/01/26 15:59:40;;;;;;;11.40;5.17;;;5.20;99.90;;;;;;4986428;28;20568;-64
2021/01/26 16:02:23;;;;;;;8.73;5.30;;;5.20;99.90;;;;;;5004635;28;20372;-64
2021/01/26 16:04:54;;;;;;;9.17;4.90;;;5.20;99.90;;;;;;5014299;28;20316;-64
2021/01/26 16:07:21;;;;;;;9.23;5.17;;;5.20;99.90;;;;;;5017737;28;20786;-64
2021/01/26 16:09:52;;;;;;;5.63;4.40;;;5.10;99.90;;;;;;5013994;28;20214;-64
2021/01/26 16:12:21;;;;;;;7.87;4.77;;;5.10;99.90;;;;;;5017514;28;20244;-64
2021/01/26 16:15:23;;;;;;;13.00;4.57;;;5.00;99.90;;;;;;5001865;28;20217;-64
2021/01/26 16:17:51;;;;;;;13.40;4.90;;;5.00;99.90;;;;;;5025201;28;20213;-64
2021/01/26 16:20:41;;;;;;;10.63;5.23;;;4.90;99.90;;;;;;5026773;28;20233;-64
2021/01/26 16:23:22;;;;;;;12.43;5.37;;;4.90;99.90;;;;;;5022448;28;20217;-64
2021/01/26 16:25:51;;;;;;;9.00;5.20;;;4.80;99.90;;;;;;5017443;28;20213;-63
2021/01/26 16:29:02;;;;;;;11.53;5.57;;;4.90;99.90;;;;;;5024168;28;20770;-64
2021/01/26 16:31:36;;;;;;;10.30;6.43;;;4.80;99.90;;;;;;5022527;28;20304;-64
2021/01/26 16:37:01;;;;;;;14.43;5.93;;;4.80;99.90;;;;;;5012823;28;20732;-64
2021/01/26 16:39:48;;;;;;;12.63;6.47;;;4.60;99.90;;;;;;5004010;28;20347;-64
2021/01/26 16:42:20;;;;;;;11.43;5.97;;;4.50;99.90;;;;;;5016876;28;20240;-64
2021/01/26 16:45:39;;;;;;;13.00;6.27;;;4.40;99.90;;;;;;5015300;28;20248;-64
2021/01/26 16:49:07;;;;;;;13.30;6.17;;;4.40;99.90;;;;;;4988791;28;20219;-64
2021/01/26 16:52:03;;;;;;;15.87;7.33;;;4.30;99.90;;;;;;4979258;28;20613;-64
2021/01/26 17:00:37;;;;;;;11.13;6.57;;;4.20;99.90;;;;;;4974281;28;20227;-64
2021/01/26 17:06:50;;;;;;;12.17;6.63;;;4.10;99.90;;;;;;4921560;29;20256;-64
2021/01/26 17:09:28;;;;;;;;;;;;;;;;;;;;;
2021/01/26 17:12:00;;;;;;;15.07;7.23;;;3.90;99.90;;;;;;4926064;29;20233;-64
2021/01/26 17:14:29;;;;;;;14.00;7.27;;;3.90;99.90;;;;;;4927941;29;20236;-63
2021/01/26 17:20:27;;;;;;;13.00;6.83;;;3.90;99.90;;;;;;4930659;28;20235;-64
2021/01/26 17:32:35;;;;;;;12.53;5.97;;;3.70;99.90;;;;;;4996551;28;20218;-64
2021/01/26 17:38:29;;;;;;;9.43;6.00;;;3.60;99.90;;;;;;4991935;28;20207;-64
2021/01/26 17:40:57;;;;;;;5.90;5.30;;;3.60;99.90;;;;;;4993668;28;20214;-64
2021/01/26 17:43:31;;;;;;;11.93;5.90;;;3.60;99.90;;;;;;4995349;28;20214;-63
2021/01/26 17:46:25;;;;;;;9.90;5.80;;;3.60;99.90;;;;;;4977000;28;20704;-64
2021/01/26 17:49:54;;;;;;;9.17;5.60;;;3.60;99.90;;;;;;5000177;28;20221;-64
2021/01/26 17:52:38;;;;;;;;;;;;;;;;;;;;;
2021/01/26 17:55:23;;;;;;;8.73;5.67;;;3.60;99.90;;;;;;4948879;28;20218;-63
2021/01/26 17:58:01;;;;;;;7.63;5.80;;;3.60;99.90;;;;;;4994851;28;20214;-63
2021/01/26 18:01:05;;;;;;;12.17;6.23;;;3.60;99.90;;;;;;4992259;28;20668;-64
2021/01/26 18:03:41;;;;;;;8.10;5.93;;;3.60;99.90;;;;;;4983474;28;20321;-64
2021/01/26 18:10:06;;;;;;;9.27;6.37;;;3.50;99.90;;;;;;4995918;28;20218;-64
2021/01/26 18:16:07;;;;;;;8.67;6.90;;;3.50;99.90;;;;;;4997513;28;20222;-63
2021/01/26 18:19:10;;;;;;;10.60;6.43;;;3.60;99.90;;;;;;4989258;28;20225;-64
2021/01/26 18:21:41;;;;;;;12.07;6.23;;;3.50;99.90;;;;;;5003404;28;20810;-63
2021/01/26 18:24:36;;;;;;;10.63;5.93;;;3.50;99.90;;;;;;4998962;28;20222;-63
2021/01/26 18:27:17;;;;;;;12.03;6.43;;;3.50;99.90;;;;;;5014006;28;20261;-64
2021/01/26 18:29:45;;;;;;;16.77;7.03;;;3.50;99.90;;;;;;5004783;28;20706;-64
2021/01/26 18:32:51;;;;;;;7.40;5.83;;;3.50;99.90;;;;;;5017814;28;20213;-63
2021/01/26 18:35:43;;;;;;;8.67;5.97;;;3.50;99.90;;;;;;4946442;28;20266;-63
2021/01/26 18:38:14;;;;;;;8.80;5.43;;;3.40;99.90;;;;;;4969362;28;20297;-63
2021/01/26 18:41:52;;;;;;;8.57;5.43;;;3.40;99.90;;;;;;4965291;28;20215;-63
2021/01/26 18:44:20;;;;;;;10.03;5.50;;;3.40;99.90;;;;;;4966346;28;20239;-64
2021/01/26 18:47:07;;;;;;;10.67;5.50;;;3.40;99.90;;;;;;4952116;28;20291;-63
2021/01/26 18:50:31;;;;;;;9.73;4.97;;;3.40;99.90;;;;;;4947390;28;20369;-64
2021/01/26 18:53:07;;;;;;;7.63;5.10;;;3.30;99.90;;;;;;4970130;28;20267;-64
2021/01/26 18:55:44;;;;;;;7.03;5.67;;;3.30;99.90;;;;;;4958682;28;20323;-63
2021/01/26 18:58:12;;;;;;;6.80;4.70;;;3.30;99.90;;;;;;4959490;28;20243;-63
2021/01/26 19:00:42;;;;;;;8.23;5.27;;;3.30;99.90;;;;;;4957560;28;20220;-63
2021/01/26 19:03:31;;;;;;;6.27;5.10;;;3.30;99.90;;;;;;4946540;28;20775;-63
2021/01/26 19:06:17;;;;;;;7.30;5.20;;;3.30;99.90;;;;;;4955273;28;20236;-63
2021/01/26 19:08:52;;;;;;;9.17;5.23;;;3.30;99.90;;;;;;4952361;28;20726;-63
2021/01/26 19:11:29;;;;;;;7.83;4.83;;;3.30;99.90;;;;;;4980651;28;20595;-63
2021/01/26 19:14:19;;;;;;;10.10;4.80;;;3.30;99.90;;;;;;5021105;28;20243;-64
2021/01/26 19:17:46;;;;;;;5.27;4.77;;;3.30;99.90;;;;;;5010924;28;20283;-64
2021/01/26 19:20:37;;;;;;;9.50;5.03;;;3.30;99.90;;;;;;5019830;28;20217;-63
2021/01/26 19:23:04;;;;;;;8.07;5.03;;;3.30;99.90;;;;;;5021905;28;20221;-63
2021/01/26 19:25:39;;;;;;;8.87;5.10;;;3.30;99.90;;;;;;5018493;28;20336;-63
2021/01/26 19:35:21;;;;;;;7.10;4.73;;;3.30;99.90;;;;;;4996858;28;20340;-63
2021/01/26 19:38:09;;;;;;;6.57;4.93;;;3.30;99.90;;;;;;5029419;28;20209;-63
2021/01/26 19:41:16;;;;;;;6.33;4.83;;;3.30;99.90;;;;;;5010410;28;20567;-63
2021/01/26 19:44:17;;;;;;;8.87;4.97;;;3.20;99.90;;;;;;4976939;28;20747;-63
2021/01/26 19:50:57;;;;;;;9.77;5.80;;;3.30;99.90;;;;;;4913144;29;20226;-63